Ride Results

Maryvale Ride (10-04-2011)
Ride distance: 80.0 km

Outcomes - Maryvale Ride (10-04-2011)
Division No. of Entries Retired / DNE Completed Withdrawn Ineligible V/O Percentage Completed
HW 14 - 9 1 - 4 64.29%
MW 22 - 19 1 - 2 86.36%
LW 16 - 13 - - 3 81.25%
JN 6 - 6 - - - 100.00%
Totals 58 - 47 2 - 9 81.03%
Results - Maryvale Ride (10-04-2011)
No. Rider Horse Place Time Leg Speeds Total
Km/Hr
H/R bpm
Heavyweight
42 Matthew Gadsby Dardanga Fingal 1 (BC) 6:08:00 12.6, 13.4 13.04 32, 45, 49 (Avg:47)
41 Paul Lengronne Cherox Kariim 1 6:08:00 13.0, 13.0 13.04 33, 44, 51 (Avg:47)
2 Gregg Fields Ra-Anji Firefly 3 6:19:00 12.9, 12.4 12.66 33, 42, 56 (Avg:49)
59 Peter McDonald Wollumbin Rafiq 4 6:49:00 12.6, 10.9 11.74 32, 42, 58 (Avg:50)
43 Paul Roosen Greywood Magenta 5 6:51:00 12.4, 11.0 11.68 36, 54, 50 (Avg:52)
31 Will Standfield Stanpark Little Joe 6 7:17:00 11.0, 10.9 10.98 36, 44, 60 (Avg:52)
49 Geoff Fisher Duray Djim 7 7:40:02 11.5, 9.5 10.43 44, 43, 46 (Avg:44)
51 Steve Barlow Tyto Ivan 8 7:43:00 11.2, 9.5 10.37 34, 46, 55 (Avg:50)
48 Terrence Weier Echo Park Highlander 9 8:10:00 10.1, 9.4 9.80 32, 41, 52 (Avg:46)
11 Thomas Kelly Charlie Brown Heart Rate L2 0:00:00 8.9, 11.6 - 38, 48, 62 (Avg:55)
53 Jaime Mansbridge Lea Ma Park La Gold Widthdrawn L2 0:00:00 - - 43, 48, 54 (Avg:51)
54 Greg Garred Performance Park Apollo Heart Rate L1 0:00:00 9.8 - 36, 68 (Avg:68)
7 Mark Harris Ejay Chevage Heart Rate L1 0:00:00 10.2 - 40, 82 (Avg:82)
13 Gary Surch Shardell Black Jack Lame L1 0:00:00 12.8 - 44, 50 (Avg:50)
Middleweight
4 Tanya Zanow Sarandeep 1 (BC) 6:00:00 13.7, 12.9 13.33 31, 41, 41 (Avg:41)
25 Karen Weeden Brumby 2 6:04:00 13.2, 13.1 13.19 46, 48, 58 (Avg:53)
57 Leeanne Bartlett Bonnie Downs Samir 3 6:49:00 12.7, 10.8 11.74 37, 49, 58 (Avg:53)
33 Brook Sample Kelkette Park Distinction 4 6:50:00 10.9, 12.6 11.71 33, 36, 41 (Avg:38)
23 Caroline Fitzgerald Lanamere Nightmusic 5 6:51:00 12.9, 10.6 11.68 34, 46, 48 (Avg:47)
24 Angela Head Lanamere Forte 5 6:51:00 12.9, 10.6 11.68 33, 45, 55 (Avg:50)
12 Wayne McKinnon Dunbar Lexus 7 6:53:00 12.8, 10.6 11.62 36, 42, 46 (Avg:44)
32 Rhys Rayner Stanpark Rupert 8 7:16:00 11.0, 10.9 11.01 34, 38, 55 (Avg:46)
38 Marion Lengronne Kalkadoon Alfresco 9 7:30:00 10.0, 11.3 10.67 38, 43, 48 (Avg:45)
40 Liz Terry Ausden Illusion 9 7:30:00 10.0, 11.3 10.67 34, 42, 50 (Avg:46)
56 Billie Barron Cameo Favorita 11 7:34:00 11.9, 9.4 10.57 34, 34, 47 (Avg:40)
52 Anne Barlow Sa-Har Magnolia 12 7:43:00 11.2, 9.5 10.37 36, 44, 56 (Avg:50)
26 Fiona Anderson Zara Farm Query 13 7:56:00 11.3, 9.0 10.08 37, 52, 51 (Avg:51)
27 Bruce Seaward Tahleah 13 7:56:00 11.3, 9.0 10.08 41, 46, 47 (Avg:46)
22 Janet Anderson Manana Zandy 15 8:02:00 10.8, 9.2 9.96 34, 46, 47 (Avg:46)
50 Cora Becker Obi Rain Dance 15 8:02:00 10.8, 9.2 9.96 34, 38, 44 (Avg:41)
60 Vanessa Burton Heathfield's Khalisa 17 8:05:00 10.2, 9.5 9.90 68, 51, 41 (Avg:46)
15 Jan Rohweder Charlie Chaplin 17 8:05:00 10.2, 9.5 9.90 36, 46, 48 (Avg:47)
55 Cathie Bruce Shannonwood Bree 19 8:18:00 11.2, 8.4 9.64 53, 43, 51 (Avg:47)
18 Debbie Torpy Ragan's Golden Girl Metabolics non-invasive L2 0:00:00 10.2, 9.1 - 33, 48, 49 (Avg:48)
1 Dave Kruger Annastu Park Carinya Heart Rate L1 0:00:00 13.1 - 33, 67 (Avg:67)
28 Bridget Nottle Byrnlea Park Sokol Widthdrawn L1 0:00:00 - - 36, 54 (Avg:54)
Lightweight
5 Jocelyn Barnes Trinity 1 6:00:00 13.7, 12.9 13.33 41, 46, 56 (Avg:51)
3 Karen Fields Cameo Inniskerry 2 6:19:00 12.9, 12.4 12.66 37, 42, 53 (Avg:47)
29 Angela Hawks Cyclone Larry 2 (BC) 6:19:00 12.8, 12.4 12.66 41, 47, 45 (Avg:46)
45 Mel Keys Revere Shalee 4 6:33:00 13.1, 11.3 12.21 44, 45, 52 (Avg:48)
58 Marjorie Demarliere Bonnie Downs Aisha 5 6:49:00 12.7, 10.8 11.74 36, 45, 56 (Avg:50)
36 Kelsey Irvine Kelkette Park Kai 6 6:50:00 10.9, 12.6 11.71 38, 39, 42 (Avg:40)
37 Cindy Menzi Brookleigh Faith 6 6:50:00 10.9, 12.6 11.71 38, 44, 56 (Avg:50)
35 Madeline Wouters Kelkette Park France 6 6:50:00 10.9, 12.6 11.71 41, 37, 53 (Avg:45)
14 Jess Ashman Dunbar Aramis 9 6:53:00 12.8, 10.6 11.62 40, 43, 49 (Avg:46)
9 Graysen Clarke Melcot Bella 10 7:30:00 10.2, 11.1 10.67 31, 37, 48 (Avg:42)
46 Sue Jones Hinterland Hellfire 11 7:40:00 11.5, 9.5 10.43 39, 43, 45 (Avg:44)
16 Christine Ablett Lindall Falen 12 8:05:00 10.2, 9.5 9.90 38, 44, 51 (Avg:47)
61 Sasha Laws-King Heathfield's Sheisha 12 8:05:00 10.2, 9.5 9.90 32, 50, 40 (Avg:45)
30 Leah Begley Royal Dominier Heart Rate L2 0:00:00 13.2, 13.4 - 42, 44, 66 (Avg:55)
8 Margaret Harvey Banbra Shadow Heart Rate L2 0:00:00 12.7, 10.7 - 34, 50, 70 (Avg:60)
44 Tamara Prentice Danic Park Tingha Heart Rate L2 0:00:00 12.9, 11.5 - 36, 50, 80 (Avg:65)
Junior
10 Lainie Zischke Sundust Soloman 1 (BC) 7:09:00 11.0, 11.3 11.19 32, 48, 42 (Avg:45)
39 Hannah Terry Tierview Feather Danczer 2 7:16:00 11.8, 10.2 11.01 32, 41, 45 (Avg:43)
6 David Anderson Jnr Chantree Park Desert Prince 3 7:17:00 11.0, 10.9 10.98 50, 55, 54 (Avg:54)
20 Steph Tulk Ausden Prince Mahal 4 8:06:00 9.1, 10.7 9.88 31, 41, 42 (Avg:41)
21 Hildegard Tack Splendacrest Ulysses 5 8:06:02 9.1, 10.7 9.88 38, 40, 51 (Avg:45)
47 Susannah Weier Thalara 6 8:10:00 10.1, 9.4 9.80 40, 41, 44 (Avg:42)